Time;durP1;ratioP1;P1;durP2;ratioP2;P2;SDS_P1;SDS_P2;PMS_P1;PMS_P2;Temp;Humidity;BMP_temperature;BMP_pressure;BME280_temperature;BME280_humidity;BME280_pressure;Samples;Min_cycle;Max_cycle;Signal;HPM_P1;HPM_P2
2022/10/12 00:02:02;;;;;;;11.73;5.00;;;7.50;99.90;;;;;;5034796;28;20072;-59
2022/10/12 00:04:29;;;;;;;10.80;4.63;;;7.40;99.90;;;;;;5034083;28;20432;-62
2022/10/12 00:06:56;;;;;;;11.05;4.35;;;7.40;99.90;;;;;;5034399;28;20120;-64
2022/10/12 00:09:22;;;;;;;12.32;4.28;;;7.40;99.90;;;;;;5034020;28;20549;-61
2022/10/12 00:11:49;;;;;;;9.60;3.85;;;7.40;99.90;;;;;;5033255;28;20072;-60
2022/10/12 00:14:16;;;;;;;9.05;4.47;;;7.40;99.90;;;;;;5033836;28;20151;-61
2022/10/12 00:16:42;;;;;;;10.95;4.20;;;7.40;99.90;;;;;;5034357;28;20091;-60
2022/10/12 00:19:09;;;;;;;12.90;4.63;;;7.40;99.90;;;;;;5034132;28;20496;-60
2022/10/12 00:21:36;;;;;;;10.98;4.15;;;7.30;99.90;;;;;;5033770;28;20033;-62
2022/10/12 00:24:03;;;;;;;12.50;4.88;;;7.30;99.90;;;;;;5016881;28;20042;-62
2022/10/12 00:26:29;;;;;;;12.68;4.40;;;7.30;99.90;;;;;;4992233;28;1203469;-62
2022/10/12 00:28:56;;;;;;;8.88;3.92;;;7.30;99.90;;;;;;5035030;28;20045;-64
2022/10/12 00:31:23;;;;;;;10.60;4.18;;;7.30;99.90;;;;;;5034676;28;20501;-61
2022/10/12 00:33:50;;;;;;;12.18;4.13;;;7.30;99.90;;;;;;5035799;28;20049;-62
2022/10/12 00:36:16;;;;;;;11.93;3.90;;;7.20;99.90;;;;;;5034803;28;20048;-62
2022/10/12 00:38:43;;;;;;;11.25;4.22;;;7.30;99.90;;;;;;5034371;28;20052;-64
2022/10/12 00:41:10;;;;;;;16.20;4.93;;;7.20;99.90;;;;;;5035121;28;20072;-64
2022/10/12 00:43:40;;;;;;;11.63;4.32;;;7.30;99.90;;;;;;5035216;28;20037;-64
2022/10/12 00:46:07;;;;;;;9.98;4.20;;;7.20;99.90;;;;;;5016555;28;20045;-62
2022/10/12 00:48:34;;;;;;;9.45;3.80;;;7.20;99.90;;;;;;5034390;28;20512;-61
2022/10/12 00:51:01;;;;;;;8.93;3.72;;;7.10;99.90;;;;;;5034282;28;20049;-61
2022/10/12 00:53:27;;;;;;;15.30;4.28;;;7.10;99.90;;;;;;5034317;28;20088;-60
2022/10/12 00:55:54;;;;;;;12.35;4.40;;;7.10;99.90;;;;;;5034197;28;20131;-62
2022/10/12 00:58:21;;;;;;;11.45;4.20;;;7.10;99.90;;;;;;5034571;28;20091;-64
2022/10/12 01:00:48;;;;;;;11.70;4.38;;;7.10;99.90;;;;;;5034805;28;20116;-61
2022/10/12 01:03:15;;;;;;;13.43;4.32;;;7.10;99.90;;;;;;5034347;28;20045;-63
2022/10/12 01:05:41;;;;;;;11.20;4.22;;;7.10;99.90;;;;;;5034240;28;20029;-63
2022/10/12 01:08:08;;;;;;;9.38;3.85;;;7.10;99.90;;;;;;5034599;28;20489;-60
2022/10/12 01:10:35;;;;;;;13.43;3.75;;;7.10;99.90;;;;;;5034113;28;20128;-61
2022/10/12 01:13:01;;;;;;;12.70;4.35;;;7.00;99.90;;;;;;5034001;28;20128;-62
2022/10/12 01:15:28;;;;;;;13.07;4.30;;;7.10;99.90;;;;;;5033768;28;20080;-62
2022/10/12 01:17:55;;;;;;;12.02;4.03;;;7.00;99.90;;;;;;5033715;28;20045;-61
2022/10/12 01:20:21;;;;;;;11.13;4.38;;;7.00;99.90;;;;;;5033998;28;20425;-62
2022/10/12 01:22:48;;;;;;;11.40;4.13;;;7.00;99.90;;;;;;5034079;28;20068;-62
2022/10/12 01:25:15;;;;;;;12.38;3.75;;;7.00;99.90;;;;;;5033789;28;20073;-60
2022/10/12 01:27:42;;;;;;;11.07;3.85;;;7.00;99.90;;;;;;5012483;28;20424;-61
2022/10/12 01:30:08;;;;;;;12.18;4.38;;;7.00;99.90;;;;;;5014093;28;20567;-65
2022/10/12 01:32:35;;;;;;;14.73;3.88;;;7.10;99.90;;;;;;5012793;28;20077;-61
2022/10/12 01:35:02;;;;;;;9.65;4.38;;;7.00;99.90;;;;;;5012365;28;20408;-61
2022/10/12 01:37:29;;;;;;;9.98;3.80;;;7.00;99.90;;;;;;5013944;28;20471;-63
2022/10/12 01:39:56;;;;;;;8.07;3.63;;;6.90;99.90;;;;;;5013116;28;20136;-62
2022/10/12 01:42:22;;;;;;;9.93;3.90;;;6.90;99.90;;;;;;5014574;28;20042;-62
2022/10/12 01:44:49;;;;;;;12.57;4.20;;;7.00;99.90;;;;;;5013791;28;20072;-62
2022/10/12 01:47:16;;;;;;;9.55;3.90;;;6.90;99.90;;;;;;5012810;28;20481;-63
2022/10/12 01:49:42;;;;;;;11.82;4.18;;;7.00;99.90;;;;;;5013802;28;20096;-62
2022/10/12 01:52:09;;;;;;;9.77;3.70;;;6.90;99.90;;;;;;5013880;28;20128;-60
2022/10/12 01:54:36;;;;;;;10.88;4.30;;;6.90;99.90;;;;;;5013843;28;20042;-61
2022/10/12 01:57:02;;;;;;;9.00;3.88;;;6.90;99.90;;;;;;5013675;28;20041;-63
2022/10/12 01:59:29;;;;;;;10.70;3.92;;;6.90;99.90;;;;;;5013728;28;20101;-61
2022/10/12 02:01:56;;;;;;;8.00;3.70;;;6.80;99.90;;;;;;5013511;28;20540;-63
2022/10/12 02:04:22;;;;;;;8.02;4.03;;;6.80;99.90;;;;;;5014079;28;20084;-65
2022/10/12 02:06:49;;;;;;;13.43;4.55;;;6.80;99.90;;;;;;5013852;28;20042;-61
2022/10/12 02:09:16;;;;;;;11.13;4.18;;;6.70;99.90;;;;;;5013781;28;20066;-62
2022/10/12 02:11:43;;;;;;;10.10;3.78;;;6.70;99.90;;;;;;5012177;28;20101;-61
2022/10/12 02:14:09;;;;;;;12.80;3.78;;;6.70;99.90;;;;;;5013726;28;20078;-61
2022/10/12 02:16:36;;;;;;;12.18;3.85;;;6.70;99.90;;;;;;5014019;28;20100;-62
2022/10/12 02:19:03;;;;;;;10.43;3.90;;;6.70;99.90;;;;;;5013828;28;20041;-63
2022/10/12 02:21:29;;;;;;;10.27;3.78;;;6.70;99.90;;;;;;5013517;28;20034;-66
2022/10/12 02:23:56;;;;;;;10.30;4.05;;;6.70;99.90;;;;;;5012576;28;20521;-64
2022/10/12 02:26:23;;;;;;;8.82;3.85;;;6.70;99.90;;;;;;5017510;28;20065;-65
2022/10/12 02:28:50;;;;;;;10.48;4.25;;;6.60;99.90;;;;;;5032992;28;20088;-60
2022/10/12 02:31:16;;;;;;;10.20;3.97;;;6.60;99.90;;;;;;5015291;28;20050;-62
2022/10/12 02:33:43;;;;;;;9.93;3.90;;;6.60;99.90;;;;;;5033586;28;20081;-61
2022/10/12 02:36:10;;;;;;;10.35;4.18;;;6.60;99.90;;;;;;5035543;28;20045;-63
2022/10/12 02:38:36;;;;;;;9.73;3.92;;;6.60;99.90;;;;;;5037287;28;20073;-66
2022/10/12 02:41:03;;;;;;;10.10;4.35;;;6.60;99.90;;;;;;5036840;28;20029;-62
2022/10/12 02:43:30;;;;;;;11.32;4.63;;;6.60;99.90;;;;;;5036840;28;20129;-60
2022/10/12 02:45:57;;;;;;;12.00;4.20;;;6.50;99.90;;;;;;5036527;28;20128;-62
2022/10/12 02:48:24;;;;;;;9.90;3.78;;;6.50;99.90;;;;;;5018965;28;20057;-61
2022/10/12 02:50:50;;;;;;;10.10;4.00;;;6.50;99.90;;;;;;5036494;28;20041;-60
2022/10/12 02:53:17;;;;;;;10.77;3.92;;;6.50;99.90;;;;;;5037232;28;20051;-60
2022/10/12 02:55:44;;;;;;;12.02;3.80;;;6.50;99.90;;;;;;5018753;28;20046;-61
2022/10/12 02:58:10;;;;;;;8.23;3.78;;;6.50;99.90;;;;;;5036905;28;20065;-61
2022/10/12 03:00:37;;;;;;;10.05;4.10;;;6.50;99.90;;;;;;5018882;28;20068;-64
2022/10/12 03:03:04;;;;;;;9.30;3.55;;;6.50;99.90;;;;;;5036544;28;20519;-62
2022/10/12 03:05:30;;;;;;;10.45;4.10;;;6.50;99.90;;;;;;5036859;28;20057;-61
2022/10/12 03:07:57;;;;;;;10.18;3.85;;;6.50;99.90;;;;;;5019251;28;20053;-63
2022/10/12 03:10:24;;;;;;;13.52;3.92;;;6.60;99.90;;;;;;5036679;28;20048;-62
2022/10/12 03:12:50;;;;;;;11.95;3.75;;;6.60;99.90;;;;;;5036080;28;20124;-62
2022/10/12 03:15:17;;;;;;;7.80;3.40;;;6.60;99.90;;;;;;5036372;28;20461;-64
2022/10/12 03:17:44;;;;;;;7.00;3.53;;;6.60;99.90;;;;;;5019086;28;20049;-62
2022/10/12 03:20:11;;;;;;;9.77;3.95;;;6.60;99.90;;;;;;5035839;28;20488;-60
2022/10/12 03:22:37;;;;;;;10.85;4.03;;;6.60;99.90;;;;;;5036104;28;20103;-63
2022/10/12 03:25:04;;;;;;;12.23;3.90;;;6.60;99.90;;;;;;5018263;28;20140;-65
2022/10/12 03:27:31;;;;;;;10.40;4.28;;;6.70;99.90;;;;;;5036093;28;20509;-62
2022/10/12 03:29:57;;;;;;;9.23;3.47;;;6.70;99.90;;;;;;5036011;28;20048;-60
2022/10/12 03:32:24;;;;;;;13.32;3.67;;;6.70;99.90;;;;;;5035880;28;20500;-62
2022/10/12 03:34:51;;;;;;;9.65;3.75;;;6.70;99.90;;;;;;5018275;28;20116;-61
2022/10/12 03:37:17;;;;;;;10.85;3.72;;;6.80;99.90;;;;;;5035639;28;20481;-60
2022/10/12 03:39:45;;;;;;;12.05;4.05;;;6.90;99.90;;;;;;5035857;28;20475;-61
2022/10/12 03:42:12;;;;;;;9.77;3.92;;;6.90;99.90;;;;;;5035525;28;20037;-62
2022/10/12 03:44:39;;;;;;;9.48;3.97;;;6.90;99.90;;;;;;5035432;28;20076;-64
2022/10/12 03:47:06;;;;;;;8.95;3.30;;;7.00;99.90;;;;;;5035555;28;20124;-60
2022/10/12 03:49:32;;;;;;;9.40;3.70;;;7.00;99.90;;;;;;5035822;28;20091;-62
2022/10/12 03:51:59;;;;;;;12.93;3.38;;;7.00;99.90;;;;;;5035306;28;20079;-61
2022/10/12 03:54:26;;;;;;;9.43;3.30;;;7.00;99.90;;;;;;5036113;28;20045;-63
2022/10/12 03:56:52;;;;;;;9.65;3.63;;;7.00;99.90;;;;;;5035719;28;20444;-63
2022/10/12 03:59:19;;;;;;;11.00;3.33;;;7.10;99.90;;;;;;5035735;28;20117;-61
2022/10/12 04:01:46;;;;;;;9.23;3.55;;;7.10;99.90;;;;;;5035868;28;20045;-62
2022/10/12 04:04:13;;;;;;;8.20;3.22;;;7.10;99.90;;;;;;5017739;28;20055;-64
2022/10/12 04:06:39;;;;;;;8.65;3.53;;;7.10;99.90;;;;;;5035515;28;20073;-63
2022/10/12 04:09:06;;;;;;;7.45;3.38;;;7.10;99.90;;;;;;5035063;28;20128;-60
2022/10/12 04:11:33;;;;;;;12.63;3.83;;;7.10;99.90;;;;;;5035284;28;20045;-61
2022/10/12 04:13:59;;;;;;;13.48;3.47;;;7.20;99.90;;;;;;5034916;28;20558;-61
2022/10/12 04:16:26;;;;;;;7.18;3.20;;;7.20;99.90;;;;;;5035070;28;20128;-61
2022/10/12 04:18:56;;;;;;;8.98;3.25;;;7.20;99.90;;;;;;5017788;28;20061;-62
2022/10/12 04:21:23;;;;;;;9.85;3.55;;;7.20;99.90;;;;;;5035008;28;20049;-63
2022/10/12 04:23:50;;;;;;;7.47;3.15;;;7.30;99.90;;;;;;5034688;28;20073;-61
2022/10/12 04:26:16;;;;;;;10.07;3.42;;;7.30;99.90;;;;;;5034749;28;20133;-60
2022/10/12 04:28:43;;;;;;;10.30;3.38;;;7.30;99.90;;;;;;5035028;28;20049;-62
2022/10/12 04:31:10;;;;;;;10.45;3.50;;;7.30;99.90;;;;;;5035203;28;20095;-62
2022/10/12 04:33:37;;;;;;;10.18;3.58;;;7.30;99.90;;;;;;5034699;28;20469;-63
2022/10/12 04:36:04;;;;;;;9.18;3.72;;;7.30;99.90;;;;;;5034906;28;20457;-61
2022/10/12 04:38:30;;;;;;;10.77;3.25;;;7.30;99.90;;;;;;5034509;28;20045;-62
2022/10/12 04:40:57;;;;;;;8.45;2.80;;;7.30;99.90;;;;;;5034796;28;20041;-60
2022/10/12 04:43:24;;;;;;;8.43;3.22;;;7.40;99.90;;;;;;5034849;28;20042;-61
2022/10/12 04:45:51;;;;;;;8.27;3.42;;;7.40;99.90;;;;;;5034652;28;20038;-64
2022/10/12 04:48:17;;;;;;;9.77;3.30;;;7.40;99.90;;;;;;5034349;28;20068;-62
2022/10/12 04:50:44;;;;;;;12.55;3.53;;;7.50;99.90;;;;;;5034446;28;20080;-63
2022/10/12 04:53:11;;;;;;;10.85;3.53;;;7.50;99.90;;;;;;5035058;28;20049;-61
2022/10/12 04:55:37;;;;;;;11.43;3.13;;;7.50;99.90;;;;;;5034649;28;20041;-63
2022/10/12 04:58:04;;;;;;;8.90;3.20;;;7.50;99.90;;;;;;5033606;28;20077;-65
2022/10/12 05:00:31;;;;;;;11.93;3.10;;;7.60;99.90;;;;;;5034406;28;20113;-66
2022/10/12 05:02:57;;;;;;;10.23;3.00;;;7.60;99.90;;;;;;5033959;28;20045;-62
2022/10/12 05:05:24;;;;;;;15.50;3.13;;;7.60;99.90;;;;;;5016643;28;20068;-65
2022/10/12 05:07:51;;;;;;;9.85;3.08;;;7.70;99.90;;;;;;5033994;28;20124;-65
2022/10/12 05:10:17;;;;;;;11.77;3.03;;;7.70;99.90;;;;;;5034064;28;20129;-61
2022/10/12 05:12:44;;;;;;;11.30;3.30;;;7.70;99.90;;;;;;5034477;28;20049;-63
2022/10/12 05:15:11;;;;;;;9.73;3.20;;;7.70;99.90;;;;;;5034175;28;20041;-61
2022/10/12 05:17:38;;;;;;;11.73;3.55;;;7.70;99.90;;;;;;5016687;28;20145;-64
2022/10/12 05:20:05;;;;;;;10.05;3.38;;;7.70;99.90;;;;;;5034356;28;20034;-61
2022/10/12 05:22:32;;;;;;;10.57;3.22;;;7.70;99.90;;;;;;5016068;28;20037;-63
2022/10/12 05:24:58;;;;;;;13.73;3.53;;;7.70;99.90;;;;;;5033660;28;20049;-61
2022/10/12 05:27:25;;;;;;;8.63;3.10;;;7.70;99.90;;;;;;5033594;28;20045;-60
2022/10/12 05:29:52;;;;;;;11.38;3.35;;;7.70;99.90;;;;;;5015867;28;20053;-62
2022/10/12 05:32:19;;;;;;;11.93;3.20;;;7.60;99.90;;;;;;5033946;28;20041;-63
2022/10/12 05:34:45;;;;;;;9.80;3.47;;;7.70;99.90;;;;;;5033473;28;20585;-62
2022/10/12 05:37:12;;;;;;;11.60;3.35;;;7.70;99.90;;;;;;5033978;28;20041;-62
2022/10/12 05:39:39;;;;;;;13.98;4.25;;;7.60;99.90;;;;;;5016020;28;20124;-61
2022/10/12 05:42:06;;;;;;;11.57;3.70;;;7.60;99.90;;;;;;5033873;28;20076;-61
2022/10/12 05:44:32;;;;;;;13.63;4.30;;;7.60;99.90;;;;;;5033742;28;20100;-62
2022/10/12 05:46:59;;;;;;;11.45;4.22;;;7.60;99.90;;;;;;5033792;28;20453;-60
2022/10/12 05:49:26;;;;;;;12.20;4.47;;;7.60;99.90;;;;;;5033611;28;20480;-62
2022/10/12 05:51:52;;;;;;;11.40;3.78;;;7.60;99.90;;;;;;5033739;28;20140;-63
2022/10/12 05:54:19;;;;;;;14.55;4.60;;;7.60;99.90;;;;;;5033536;28;20049;-61
2022/10/12 05:56:46;;;;;;;14.55;5.47;;;7.60;99.90;;;;;;5033646;28;20107;-62
2022/10/12 05:59:13;;;;;;;12.15;4.95;;;7.60;99.90;;;;;;5033280;28;20065;-63
2022/10/12 06:01:39;;;;;;;14.10;4.45;;;7.60;99.90;;;;;;5033627;28;20041;-62
2022/10/12 06:04:06;;;;;;;14.55;5.00;;;7.60;99.90;;;;;;5033068;28;20555;-64
2022/10/12 06:06:33;;;;;;;10.13;4.32;;;7.60;99.90;;;;;;5033641;28;20068;-61
2022/10/12 06:08:59;;;;;;;14.98;4.93;;;7.70;99.90;;;;;;5033057;28;20049;-61
2022/10/12 06:11:26;;;;;;;12.88;5.10;;;7.60;99.90;;;;;;5036180;28;20049;-61
2022/10/12 06:13:58;;;;;;;12.25;4.63;;;7.70;99.90;;;;;;5037457;28;20073;-61
2022/10/12 06:16:24;;;;;;;15.02;5.22;;;7.70;99.90;;;;;;5037521;28;20500;-61
2022/10/12 06:18:51;;;;;;;11.32;4.70;;;7.70;99.90;;;;;;5037560;28;20049;-64
2022/10/12 06:21:18;;;;;;;14.63;4.40;;;7.70;99.90;;;;;;5019240;28;20108;-62
2022/10/12 06:24:00;;;;;;;12.80;4.53;;;7.80;99.90;;;;;;5037011;28;20041;-63
2022/10/12 06:26:27;;;;;;;13.80;5.32;;;7.80;99.90;;;;;;5036694;28;20040;-61
2022/10/12 06:28:54;;;;;;;9.13;4.45;;;7.80;99.90;;;;;;5036636;28;20050;-67
2022/10/12 06:31:20;;;;;;;12.40;5.00;;;7.90;99.90;;;;;;5037116;28;20049;-59
2022/10/12 06:33:49;;;;;;;11.52;5.25;;;7.90;99.90;;;;;;5036291;28;20041;-60
2022/10/12 06:36:16;;;;;;;13.15;4.72;;;7.90;99.90;;;;;;5037151;28;20129;-64
2022/10/12 06:38:43;;;;;;;13.85;4.75;;;7.90;99.90;;;;;;5036505;28;20095;-59
2022/10/12 06:41:10;;;;;;;10.65;4.72;;;7.90;99.90;;;;;;5019223;28;20045;-62
2022/10/12 06:43:36;;;;;;;12.05;5.85;;;7.90;99.90;;;;;;5036855;28;20107;-61
2022/10/12 06:46:03;;;;;;;13.25;5.60;;;7.90;99.90;;;;;;5038260;28;20041;-60
2022/10/12 06:48:30;;;;;;;16.63;6.35;;;8.00;99.90;;;;;;5036101;28;20041;-60
2022/10/12 06:50:57;;;;;;;12.82;5.60;;;8.00;99.90;;;;;;5035814;28;20140;-61
2022/10/12 06:53:27;;;;;;;13.00;5.45;;;8.00;99.90;;;;;;5036366;28;20049;-63
2022/10/12 06:55:54;;;;;;;9.18;4.78;;;8.00;99.90;;;;;;5036174;28;20497;-61
2022/10/12 06:58:20;;;;;;;10.68;4.78;;;8.00;99.90;;;;;;5036245;28;20041;-60
2022/10/12 07:00:47;;;;;;;14.65;5.20;;;8.10;99.90;;;;;;5035972;28;20046;-65
2022/10/12 07:03:15;;;;;;;12.25;4.97;;;8.10;99.90;;;;;;5035736;28;20065;-64
2022/10/12 07:05:42;;;;;;;13.10;6.03;;;8.20;99.90;;;;;;5035708;28;20079;-60
2022/10/12 07:08:08;;;;;;;19.13;5.68;;;8.20;99.90;;;;;;5035983;28;20073;-63
2022/10/12 07:10:35;;;;;;;18.55;7.32;;;8.20;99.90;;;;;;5035989;28;20057;-63
2022/10/12 07:13:02;;;;;;;15.38;7.35;;;8.30;99.90;;;;;;5032132;28;20037;-60
2022/10/12 07:15:28;;;;;;;16.90;6.38;;;8.30;99.90;;;;;;5030208;28;20061;-61
2022/10/12 07:17:55;;;;;;;15.95;6.47;;;8.30;99.90;;;;;;5035589;28;20041;-62
2022/10/12 07:20:22;;;;;;;13.45;6.38;;;8.30;99.90;;;;;;5035554;28;20042;-61
2022/10/12 07:22:49;;;;;;;16.63;6.00;;;8.40;99.90;;;;;;5034942;28;20041;-57
2022/10/12 07:25:15;;;;;;;16.75;5.15;;;8.40;99.90;;;;;;5028212;28;20121;-59
2022/10/12 07:27:42;;;;;;;11.30;4.60;;;8.50;99.90;;;;;;5035473;28;20053;-65
2022/10/12 07:30:09;;;;;;;13.25;4.80;;;8.50;99.90;;;;;;5035454;28;20143;-59
2022/10/12 07:32:36;;;;;;;12.23;4.47;;;8.50;99.90;;;;;;5035174;28;20493;-62
2022/10/12 07:35:02;;;;;;;14.50;3.88;;;8.70;99.90;;;;;;5035172;28;20046;-61
2022/10/12 07:37:29;;;;;;;18.70;3.72;;;8.70;99.90;;;;;;5035364;28;20045;-61
2022/10/12 07:39:56;;;;;;;12.77;3.55;;;8.80;99.90;;;;;;5035214;28;20060;-62
2022/10/12 07:42:23;;;;;;;11.95;3.05;;;8.80;99.90;;;;;;5035160;28;20489;-57
2022/10/12 07:44:50;;;;;;;10.43;2.80;;;8.90;99.90;;;;;;5034973;28;20132;-61
2022/10/12 07:47:18;;;;;;;10.82;3.10;;;9.00;99.90;;;;;;5035214;28;20124;-60
2022/10/12 07:49:45;;;;;;;10.93;2.65;;;9.00;99.90;;;;;;5025580;28;20049;-59
2022/10/12 07:52:11;;;;;;;9.98;2.58;;;9.10;99.90;;;;;;5034896;28;20051;-61
2022/10/12 07:54:38;;;;;;;14.65;3.15;;;9.20;99.90;;;;;;5034639;28;20080;-61
2022/10/12 07:57:05;;;;;;;13.93;3.05;;;9.20;99.90;;;;;;5035243;28;20052;-62
2022/10/12 07:59:32;;;;;;;14.30;3.80;;;9.30;99.90;;;;;;5035601;28;20037;-59
2022/10/12 08:01:58;;;;;;;10.32;2.83;;;9.30;99.90;;;;;;5034767;28;20144;-63
2022/10/12 08:04:25;;;;;;;11.70;3.35;;;9.40;99.90;;;;;;5034566;28;20519;-62
2022/10/12 08:06:52;;;;;;;10.32;2.92;;;9.40;99.90;;;;;;5034360;28;20128;-63
2022/10/12 08:09:19;;;;;;;11.18;3.08;;;9.50;99.90;;;;;;5034497;28;20064;-62
2022/10/12 08:11:45;;;;;;;10.30;3.03;;;9.60;99.90;;;;;;5034420;28;20045;-63
2022/10/12 08:14:13;;;;;;;10.30;3.03;;;9.60;99.90;;;;;;5035060;28;20080;-62
2022/10/12 08:16:40;;;;;;;10.10;3.10;;;9.70;99.90;;;;;;5035089;28;20053;-61
2022/10/12 08:19:06;;;;;;;8.85;2.85;;;9.70;99.90;;;;;;5035350;28;20116;-63
2022/10/12 08:21:33;;;;;;;11.40;3.53;;;9.90;99.90;;;;;;5035140;28;20125;-63
2022/10/12 08:24:00;;;;;;;10.38;3.45;;;9.90;99.90;;;;;;5034839;28;20552;-63
2022/10/12 08:26:28;;;;;;;13.30;3.33;;;10.00;99.90;;;;;;5035393;28;20376;-61
2022/10/12 08:28:54;;;;;;;14.07;3.45;;;10.20;99.90;;;;;;5034687;28;20049;-60
2022/10/12 08:31:21;;;;;;;10.95;3.10;;;10.30;99.90;;;;;;5033534;28;20400;-61
2022/10/12 08:33:48;;;;;;;16.73;3.33;;;10.40;99.90;;;;;;5033978;28;20435;-59
2022/10/12 08:36:15;;;;;;;21.98;6.43;;;10.50;99.90;;;;;;5034829;28;20045;-63
2022/10/12 08:38:47;;;;;;;24.08;7.82;;;10.60;99.90;;;;;;5034432;28;20099;-61
2022/10/12 08:41:14;;;;;;;17.08;3.75;;;10.70;99.90;;;;;;5034209;28;20049;-61
2022/10/12 08:43:41;;;;;;;13.88;3.10;;;10.70;99.90;;;;;;5034375;28;20053;-61
2022/10/12 08:46:07;;;;;;;10.52;2.63;;;10.80;99.90;;;;;;5033439;28;20045;-60
2022/10/12 08:48:34;;;;;;;9.02;3.15;;;10.90;99.90;;;;;;5034443;28;20037;-64
2022/10/12 08:51:01;;;;;;;9.68;2.45;;;11.00;99.90;;;;;;5034659;28;20048;-63
2022/10/12 08:53:27;;;;;;;12.82;4.00;;;11.10;99.90;;;;;;5034533;28;20042;-61
2022/10/12 08:55:55;;;;;;;13.95;2.83;;;11.10;99.90;;;;;;5034283;28;20045;-65
2022/10/12 08:58:22;;;;;;;11.77;3.05;;;11.20;99.90;;;;;;5034082;28;20073;-65
2022/10/12 09:00:49;;;;;;;10.27;2.72;;;11.20;99.90;;;;;;5034111;28;20479;-63
2022/10/12 09:03:15;;;;;;;10.15;2.60;;;11.20;99.90;;;;;;5034153;28;20065;-61
2022/10/12 09:05:42;;;;;;;12.15;3.20;;;11.30;99.90;;;;;;5033972;28;20073;-62
2022/10/12 09:08:09;;;;;;;10.07;3.00;;;11.30;99.90;;;;;;5034144;28;20442;-62
2022/10/12 09:10:36;;;;;;;11.35;2.58;;;11.30;99.90;;;;;;5034245;28;20511;-63
2022/10/12 09:13:02;;;;;;;11.93;2.85;;;11.40;99.90;;;;;;5034013;28;20068;-61
2022/10/12 09:15:29;;;;;;;8.93;2.58;;;11.40;99.90;;;;;;5033897;28;20095;-61
2022/10/12 09:17:56;;;;;;;13.02;3.15;;;11.40;99.90;;;;;;5034164;28;20056;-65
2022/10/12 09:20:22;;;;;;;11.20;2.90;;;11.40;99.90;;;;;;5033668;28;20192;-61
2022/10/12 09:22:49;;;;;;;12.40;2.75;;;11.50;99.90;;;;;;5033754;28;20041;-64
2022/10/12 09:25:16;;;;;;;11.75;2.70;;;11.60;99.90;;;;;;5033245;28;20479;-60
2022/10/12 09:27:42;;;;;;;20.52;4.05;;;11.60;99.90;;;;;;5033490;28;20095;-61
2022/10/12 09:30:10;;;;;;;18.15;3.63;;;11.70;99.90;;;;;;5033491;28;20045;-63
2022/10/12 09:32:37;;;;;;;24.27;4.35;;;11.70;99.90;;;;;;5033556;28;20046;-61
2022/10/12 09:35:06;;;;;;;50.03;9.25;;;11.80;99.90;;;;;;5033512;28;20377;-64
2022/10/12 09:37:33;;;;;;;24.10;4.53;;;11.80;99.90;;;;;;5033639;28;20117;-60
2022/10/12 09:40:00;;;;;;;29.83;4.70;;;11.90;99.90;;;;;;5033352;28;20080;-61
2022/10/12 09:42:27;;;;;;;19.48;3.80;;;12.00;99.90;;;;;;5033512;28;20112;-67
2022/10/12 09:44:53;;;;;;;24.17;4.88;;;12.00;99.90;;;;;;5033354;28;20091;-62
2022/10/12 09:47:20;;;;;;;19.88;3.95;;;12.10;99.90;;;;;;5032579;28;20092;-65
2022/10/12 09:49:47;;;;;;;36.55;6.38;;;12.10;99.90;;;;;;5033536;28;20052;-63
2022/10/12 09:52:14;;;;;;;25.48;4.30;;;12.20;99.90;;;;;;5033572;28;20451;-61
2022/10/12 09:54:41;;;;;;;62.53;7.78;;;12.20;99.90;;;;;;5033595;28;20049;-62
2022/10/12 09:57:07;;;;;;;42.75;6.85;;;12.30;99.90;;;;;;5033892;28;20049;-63
2022/10/12 09:59:34;;;;;;;34.28;6.15;;;12.40;99.90;;;;;;5032434;28;20068;-62
2022/10/12 10:02:01;;;;;;;19.35;4.60;;;12.60;99.90;;;;;;5033436;28;20042;-60
2022/10/12 10:04:28;;;;;;;52.30;7.65;;;12.70;99.90;;;;;;5033164;28;20037;-60
2022/10/12 10:06:55;;;;;;;32.90;5.63;;;12.90;99.90;;;;;;5032781;28;20069;-63
2022/10/12 10:09:22;;;;;;;13.50;3.40;;;12.90;99.90;;;;;;5033320;28;20049;-62
2022/10/12 10:11:49;;;;;;;16.38;2.70;;;13.10;99.90;;;;;;5033199;28;20350;-61
2022/10/12 10:14:16;;;;;;;13.63;2.85;;;13.20;99.90;;;;;;5033183;28;20540;-61
2022/10/12 10:16:42;;;;;;;10.07;2.85;;;13.20;99.90;;;;;;5033813;28;20461;-64
2022/10/12 10:19:09;;;;;;;13.75;3.30;;;13.30;99.90;;;;;;5033639;28;20480;-65
2022/10/12 10:21:36;;;;;;;25.13;3.72;;;13.40;99.90;;;;;;5031913;28;20046;-63
2022/10/12 10:24:03;;;;;;;18.77;2.83;;;13.50;99.90;;;;;;5033312;28;20088;-63
2022/10/12 10:26:31;;;;;;;16.73;4.03;;;13.50;99.90;;;;;;5033352;28;20103;-64
2022/10/12 10:28:57;;;;;;;9.27;2.65;;;13.60;99.90;;;;;;5032928;28;20508;-60
2022/10/12 10:31:26;;;;;;;82.15;9.48;;;13.70;99.90;;;;;;5033648;28;20049;-60
2022/10/12 10:33:53;;;;;;;12.77;3.13;;;13.70;99.90;;;;;;5033425;28;20493;-65
2022/10/12 10:36:21;;;;;;;11.93;2.72;;;13.80;99.90;;;;;;5032960;28;20100;-60
2022/10/12 10:38:47;;;;;;;25.95;4.90;;;13.90;99.90;;;;;;5033266;28;20045;-66
2022/10/12 10:41:14;;;;;;;29.50;4.43;;;14.10;99.90;;;;;;5032939;28;20440;-63
2022/10/12 10:43:41;;;;;;;12.32;2.80;;;14.20;99.90;;;;;;5032917;28;20138;-62
2022/10/12 10:46:07;;;;;;;12.15;2.80;;;14.40;99.90;;;;;;5035238;28;20065;-64
2022/10/12 10:48:34;;;;;;;14.27;3.78;;;14.50;99.90;;;;;;5034582;28;20043;-60
2022/10/12 10:51:01;;;;;;;17.52;3.70;;;14.50;99.90;;;;;;5047492;28;20083;-62
2022/10/12 10:53:28;;;;;;;43.72;6.30;;;14.60;99.90;;;;;;5032622;28;20088;-60
2022/10/12 10:55:54;;;;;;;13.95;3.42;;;14.70;99.90;;;;;;5029076;28;20029;-60
2022/10/12 10:58:21;;;;;;;12.07;2.80;;;14.70;99.90;;;;;;5036377;28;20056;-61
2022/10/12 11:00:48;;;;;;;20.50;4.40;;;14.70;99.90;;;;;;5038461;28;20061;-61
2022/10/12 11:03:15;;;;;;;65.65;7.85;;;14.80;99.90;;;;;;5055225;28;20083;-63
2022/10/12 11:05:43;;;;;;;9.75;2.47;;;14.90;99.90;;;;;;5046165;28;20111;-62
2022/10/12 11:08:10;;;;;;;11.73;3.00;;;15.00;99.90;;;;;;5036272;28;20048;-62
2022/10/12 11:10:37;;;;;;;13.80;3.63;;;15.00;99.90;;;;;;5035640;28;20081;-61
2022/10/12 11:13:03;;;;;;;12.88;3.28;;;15.10;99.90;;;;;;5035944;28;20044;-63
2022/10/12 11:15:32;;;;;;;11.02;3.30;;;15.10;99.90;;;;;;5035626;28;20080;-62
2022/10/12 11:17:59;;;;;;;9.82;2.83;;;15.10;99.90;;;;;;5023468;28;20080;-65
2022/10/12 11:20:25;;;;;;;11.18;3.08;;;15.10;99.90;;;;;;5035783;28;20042;-62
2022/10/12 11:22:52;;;;;;;12.50;3.17;;;15.10;99.90;;;;;;5035112;28;20117;-63
2022/10/12 11:25:19;;;;;;;10.88;3.38;;;15.10;99.90;;;;;;5035607;28;20048;-64
2022/10/12 11:27:45;;;;;;;10.50;3.17;;;15.10;99.90;;;;;;5035711;28;20369;-64
2022/10/12 11:30:18;;;;;;;8.38;3.55;;;15.10;99.90;;;;;;5035717;28;20105;-61
2022/10/12 11:32:45;;;;;;;10.45;3.30;;;15.10;99.90;;;;;;5035010;28;20073;-65
2022/10/12 11:35:11;;;;;;;10.35;3.17;;;15.10;99.90;;;;;;5035285;28;20547;-64
2022/10/12 11:37:38;;;;;;;9.07;2.85;;;15.10;99.90;;;;;;5035574;28;20045;-63
2022/10/12 11:40:05;;;;;;;12.98;3.55;;;15.10;99.90;;;;;;5035317;28;20099;-63
2022/10/12 11:42:32;;;;;;;10.43;3.10;;;15.10;99.90;;;;;;5035286;28;20064;-63
2022/10/12 11:44:59;;;;;;;11.10;3.00;;;15.10;99.90;;;;;;5035158;28;20393;-61
2022/10/12 11:47:26;;;;;;;11.63;3.00;;;15.10;99.90;;;;;;5034714;28;20064;-60
2022/10/12 11:49:52;;;;;;;28.92;5.82;;;15.10;99.90;;;;;;5035500;28;20041;-60
2022/10/12 11:52:19;;;;;;;16.42;3.78;;;15.10;99.90;;;;;;5017029;28;20256;-62
2022/10/12 11:54:51;;;;;;;49.63;6.05;;;15.10;99.90;;;;;;5035253;28;20050;-63
2022/10/12 11:57:18;;;;;;;41.63;6.78;;;15.10;99.90;;;;;;5034909;28;20124;-62
2022/10/12 11:59:45;;;;;;;11.40;2.92;;;15.20;99.90;;;;;;5034394;28;20045;-63
2022/10/12 12:02:11;;;;;;;42.97;6.30;;;15.20;99.90;;;;;;5034882;28;20042;-61
2022/10/12 12:04:38;;;;;;;13.23;3.58;;;15.30;99.90;;;;;;5032928;28;20038;-66
2022/10/12 12:07:08;;;;;;;16.48;3.35;;;15.40;99.90;;;;;;5034100;28;20045;-64
2022/10/12 12:09:35;;;;;;;11.93;3.00;;;15.60;99.90;;;;;;5036309;28;20120;-64
2022/10/12 12:12:02;;;;;;;63.75;7.70;;;15.70;99.90;;;;;;5043843;28;20104;-62
2022/10/12 12:14:28;;;;;;;14.88;3.60;;;15.80;99.90;;;;;;5040854;28;20399;-65
2022/10/12 12:16:55;;;;;;;11.05;2.67;;;15.80;99.90;;;;;;5028214;28;20113;-63
2022/10/12 12:19:22;;;;;;;27.02;4.85;;;15.90;99.90;;;;;;5050888;28;20115;-63
2022/10/12 12:21:48;;;;;;;9.48;3.10;;;15.90;99.90;;;;;;5046106;28;20377;-65
2022/10/12 12:24:15;;;;;;;14.07;2.80;;;16.00;99.90;;;;;;5046309;28;20075;-67
2022/10/12 12:26:42;;;;;;;9.57;2.78;;;16.00;99.90;;;;;;5047654;28;20040;-64
2022/10/12 12:29:09;;;;;;;18.52;3.28;;;16.00;99.90;;;;;;5042028;28;20109;-65
2022/10/12 12:31:35;;;;;;;19.58;4.22;;;16.00;99.90;;;;;;5046251;28;20064;-63
2022/10/12 12:34:02;;;;;;;10.60;3.08;;;16.10;99.90;;;;;;5031418;28;20353;-65
2022/10/12 12:36:29;;;;;;;22.73;4.80;;;16.10;99.90;;;;;;5043860;28;20129;-62
2022/10/12 12:38:55;;;;;;;10.57;3.10;;;16.20;99.90;;;;;;5039318;28;20041;-61
2022/10/12 12:41:22;;;;;;;14.77;3.20;;;16.20;99.90;;;;;;5033788;28;20069;-62
2022/10/12 12:43:49;;;;;;;14.45;3.03;;;16.30;99.80;;;;;;5034653;28;20049;-62